Time;durP1;ratioP1;P1;durP2;ratioP2;P2;SDS_P1;SDS_P2;PMS_P1;PMS_P2;Temp;Humidity;BMP_temperature;BMP_pressure;BME280_temperature;BME280_humidity;BME280_pressure;Samples;Min_cycle;Max_cycle;Signal;HPM_P1;HPM_P2
2023/04/20 00:01:10;;;;;;;7.63;4.27;;;8.10;1.00;;;;;;5065584;28;20200;-67
2023/04/20 00:03:37;;;;;;;7.20;4.83;;;8.00;1.00;;;;;;5044157;28;20229;-68
2023/04/20 00:06:04;;;;;;;6.73;4.47;;;7.90;1.00;;;;;;5008841;28;20298;-67
2023/04/20 00:08:31;;;;;;;6.97;4.80;;;7.90;1.00;;;;;;5049309;28;20532;-67
2023/04/20 00:10:58;;;;;;;7.80;5.20;;;7.90;1.00;;;;;;5030442;28;20595;-67
2023/04/20 00:13:25;;;;;;;5.87;4.40;;;7.90;1.00;;;;;;5051947;28;20254;-67
2023/04/20 00:15:52;;;;;;;6.57;4.53;;;7.90;1.00;;;;;;5046527;28;20686;-68
2023/04/20 00:18:19;;;;;;;8.30;4.43;;;7.90;1.00;;;;;;5016835;28;20204;-68
2023/04/20 00:20:46;;;;;;;6.07;4.10;;;8.00;1.00;;;;;;5045063;28;20200;-68
2023/04/20 00:23:14;;;;;;;5.60;3.97;;;8.00;1.00;;;;;;5045008;28;20200;-68
2023/04/20 00:25:41;;;;;;;5.00;3.90;;;8.00;1.00;;;;;;5014941;28;20214;-68
2023/04/20 00:28:08;;;;;;;8.10;4.33;;;8.00;1.00;;;;;;5029840;28;20322;-68
2023/04/20 00:30:35;;;;;;;6.43;4.03;;;8.00;1.00;;;;;;5050862;28;20195;-68
2023/04/20 00:33:03;;;;;;;5.97;3.77;;;8.00;1.00;;;;;;5046012;28;20483;-68
2023/04/20 00:35:30;;;;;;;6.30;3.50;;;8.10;1.00;;;;;;5045109;28;20200;-68
2023/04/20 00:37:57;;;;;;;6.53;3.70;;;8.10;1.00;;;;;;5027302;28;20262;-68
2023/04/20 00:40:24;;;;;;;5.00;3.60;;;8.00;1.00;;;;;;5034356;28;20298;-69
2023/04/20 00:42:54;;;;;;;4.53;3.53;;;8.00;1.00;;;;;;5047407;28;20246;-68
2023/04/20 00:45:24;;;;;;;6.30;3.90;;;8.10;1.00;;;;;;5044823;28;21147;-69
2023/04/20 00:47:51;;;;;;;6.40;3.70;;;8.10;1.00;;;;;;5030964;28;20647;-68
2023/04/20 00:50:19;;;;;;;6.47;3.43;;;8.10;1.00;;;;;;5044713;28;20187;-68
2023/04/20 00:52:46;;;;;;;8.23;3.70;;;8.20;1.00;;;;;;5045080;28;20183;-68
2023/04/20 00:55:13;;;;;;;3.70;3.10;;;8.10;1.00;;;;;;5029252;28;20238;-68
2023/04/20 00:57:41;;;;;;;6.90;3.60;;;8.10;1.00;;;;;;5029529;28;20200;-68
2023/04/20 01:00:09;;;;;;;6.20;3.33;;;8.10;1.00;;;;;;5033369;28;20195;-68
2023/04/20 01:02:36;;;;;;;7.40;3.53;;;8.10;1.00;;;;;;5045650;28;20239;-68
2023/04/20 01:05:07;;;;;;;7.13;3.50;;;8.10;1.00;;;;;;5029705;28;20187;-68
2023/04/20 01:07:34;;;;;;;4.50;3.57;;;8.10;1.00;;;;;;5045264;28;20230;-68
2023/04/20 01:10:01;;;;;;;6.10;3.50;;;8.10;1.00;;;;;;5035345;28;20278;-68
2023/04/20 01:12:30;;;;;;;4.83;3.17;;;8.10;1.00;;;;;;5028829;28;20290;-68
2023/04/20 01:14:57;;;;;;;3.87;2.80;;;8.10;1.00;;;;;;5028672;28;20223;-68
2023/04/20 01:17:24;;;;;;;7.70;3.00;;;8.10;1.00;;;;;;5056010;28;20204;-68
2023/04/20 01:19:51;;;;;;;8.23;3.30;;;8.10;1.00;;;;;;5029906;28;20878;-68
2023/04/20 01:22:20;;;;;;;5.93;3.20;;;8.10;1.00;;;;;;5044854;28;20200;-68
2023/04/20 01:24:47;;;;;;;7.37;3.30;;;8.00;1.00;;;;;;5015171;28;20298;-67
2023/04/20 01:27:15;;;;;;;6.10;3.50;;;8.00;1.00;;;;;;5048206;28;20188;-67
2023/04/20 01:29:44;;;;;;;6.07;3.37;;;8.00;1.00;;;;;;5033692;28;20657;-67
2023/04/20 01:32:11;;;;;;;4.57;3.03;;;8.00;1.00;;;;;;5045585;28;20184;-67
2023/04/20 01:34:39;;;;;;;5.60;3.60;;;8.10;1.00;;;;;;5046757;28;20520;-67
2023/04/20 01:37:07;;;;;;;6.73;3.17;;;8.10;1.00;;;;;;5030812;28;20598;-68
2023/04/20 01:39:38;;;;;;;8.70;3.00;;;8.00;1.00;;;;;;5028252;28;20290;-67
2023/04/20 01:42:06;;;;;;;7.13;3.00;;;8.10;1.00;;;;;;5025748;28;20196;-67
2023/04/20 01:44:33;;;;;;;4.57;2.83;;;8.10;1.00;;;;;;5042125;28;20278;-67
2023/04/20 01:47:00;;;;;;;8.23;3.23;;;8.10;1.00;;;;;;5045172;28;20670;-67
2023/04/20 01:49:27;;;;;;;5.97;3.33;;;8.10;1.00;;;;;;5043369;28;20539;-67
2023/04/20 01:51:54;;;;;;;7.73;2.90;;;8.10;1.00;;;;;;5029877;28;20290;-67
2023/04/20 01:54:21;;;;;;;7.77;3.50;;;8.00;1.00;;;;;;5047285;28;20227;-67
2023/04/20 01:56:48;;;;;;;6.60;3.10;;;8.10;1.00;;;;;;5046488;28;20685;-68
2023/04/20 01:59:15;;;;;;;6.87;3.57;;;8.10;1.00;;;;;;5044340;28;20217;-67
2023/04/20 02:01:43;;;;;;;8.70;3.57;;;8.00;1.00;;;;;;5020535;28;20283;-67
2023/04/20 02:04:10;;;;;;;4.40;3.40;;;8.00;1.00;;;;;;5055581;28;20593;-68
2023/04/20 02:06:39;;;;;;;5.27;3.63;;;8.00;1.00;;;;;;5058153;28;20708;-67
2023/04/20 02:09:08;;;;;;;6.53;4.17;;;8.00;1.00;;;;;;5046959;28;20191;-67
2023/04/20 02:11:35;;;;;;;10.17;4.40;;;8.00;1.00;;;;;;5069350;28;20187;-67
2023/04/20 02:14:04;;;;;;;6.60;4.53;;;8.00;1.00;;;;;;5049228;28;20283;-68
2023/04/20 02:16:31;;;;;;;8.33;3.93;;;8.00;1.00;;;;;;5051254;28;20198;-68
2023/04/20 02:18:58;;;;;;;6.37;4.53;;;8.00;1.00;;;;;;5052719;28;20213;-68
2023/04/20 02:21:26;;;;;;;8.77;4.63;;;8.00;1.00;;;;;;5066188;28;20205;-68
2023/04/20 02:23:54;;;;;;;5.00;4.20;;;7.90;1.00;;;;;;5050633;28;20573;-69
2023/04/20 02:26:21;;;;;;;6.80;4.37;;;7.80;1.00;;;;;;5067308;28;20214;-68
2023/04/20 02:28:47;;;;;;;8.63;5.33;;;7.90;1.00;;;;;;5070194;28;20240;-68
2023/04/20 02:31:15;;;;;;;6.23;4.30;;;7.80;1.00;;;;;;5055100;28;20191;-68
2023/04/20 02:33:44;;;;;;;6.67;4.40;;;7.80;1.00;;;;;;5064877;28;20210;-68
2023/04/20 02:36:10;;;;;;;6.17;4.77;;;7.80;1.00;;;;;;5047477;28;20226;-68
2023/04/20 02:38:39;;;;;;;6.67;4.83;;;7.70;1.00;;;;;;5068080;28;20187;-68
2023/04/20 02:41:06;;;;;;;8.17;5.23;;;7.70;1.00;;;;;;5066305;28;20379;-68
2023/04/20 02:43:35;;;;;;;13.10;5.70;;;7.60;1.00;;;;;;5056451;28;20269;-68
2023/04/20 02:46:03;;;;;;;7.77;4.73;;;7.60;1.00;;;;;;5057266;28;20218;-66
2023/04/20 02:48:30;;;;;;;7.43;5.20;;;7.50;1.00;;;;;;5053667;28;20658;-65
2023/04/20 02:50:58;;;;;;;7.33;4.80;;;7.50;1.00;;;;;;5069220;28;20214;-67
2023/04/20 02:53:30;;;;;;;6.43;4.27;;;7.50;1.00;;;;;;5068636;28;20187;-67
2023/04/20 02:56:12;;;;;;;7.20;4.70;;;7.50;1.00;;;;;;5067712;28;20710;-67
2023/04/20 02:58:47;;;;;;;7.30;4.40;;;7.50;1.00;;;;;;5045992;28;20363;-67
2023/04/20 03:01:28;;;;;;;8.23;4.47;;;7.50;1.00;;;;;;5053092;28;20203;-66
2023/04/20 03:04:04;;;;;;;9.43;4.30;;;7.50;1.00;;;;;;5056284;28;20593;-67
2023/04/20 03:06:35;;;;;;;8.23;4.90;;;7.40;1.00;;;;;;5052548;28;20211;-67
2023/04/20 03:09:06;;;;;;;6.57;4.60;;;7.40;1.00;;;;;;5072961;28;20188;-67
2023/04/20 03:11:39;;;;;;;6.03;4.47;;;7.40;1.00;;;;;;5068287;28;20191;-67
2023/04/20 03:14:08;;;;;;;9.70;4.93;;;7.40;1.00;;;;;;5062998;28;20214;-67
2023/04/20 03:16:35;;;;;;;8.77;4.83;;;7.30;1.00;;;;;;5052171;28;20609;-67
2023/04/20 03:19:03;;;;;;;6.63;4.73;;;7.40;1.00;;;;;;5069023;28;20634;-67
2023/04/20 03:21:31;;;;;;;8.97;4.60;;;7.40;1.00;;;;;;5061720;28;20195;-67
2023/04/20 03:24:01;;;;;;;7.00;4.43;;;7.30;1.00;;;;;;5071590;28;20198;-67
2023/04/20 03:26:28;;;;;;;6.70;4.80;;;7.30;1.00;;;;;;5069858;28;20214;-67
2023/04/20 03:29:16;;;;;;;12.87;4.50;;;7.30;1.00;;;;;;5045720;28;20644;-66
2023/04/20 03:31:44;;;;;;;7.20;4.60;;;7.30;1.00;;;;;;5067194;28;20199;-65
2023/04/20 03:34:11;;;;;;;8.43;5.17;;;7.20;1.00;;;;;;5069993;28;20186;-65
2023/04/20 03:36:38;;;;;;;7.33;4.60;;;7.20;1.00;;;;;;5072259;28;20206;-65
2023/04/20 03:39:05;;;;;;;9.50;5.27;;;7.30;1.00;;;;;;5071274;28;20195;-66
2023/04/20 03:41:32;;;;;;;4.87;4.10;;;7.20;1.00;;;;;;5068970;28;20256;-67
2023/04/20 03:43:59;;;;;;;4.90;4.40;;;7.20;1.00;;;;;;5069941;28;20226;-66
2023/04/20 03:46:27;;;;;;;7.73;4.07;;;7.30;1.00;;;;;;5065249;28;20220;-66
2023/04/20 03:48:54;;;;;;;6.23;4.60;;;7.20;1.00;;;;;;5070018;28;20229;-65
2023/04/20 03:51:22;;;;;;;7.13;4.53;;;7.20;1.00;;;;;;5053000;28;20836;-66
2023/04/20 03:53:49;;;;;;;7.33;4.30;;;7.20;1.00;;;;;;5061145;28;20220;-66
2023/04/20 03:56:17;;;;;;;9.13;4.40;;;7.20;1.00;;;;;;5066765;28;20199;-66
2023/04/20 03:58:44;;;;;;;4.73;4.00;;;7.20;1.00;;;;;;5069843;28;20557;-67
2023/04/20 04:01:15;;;;;;;6.30;4.37;;;7.10;1.00;;;;;;5069630;28;20267;-66
2023/04/20 04:03:46;;;;;;;5.23;4.33;;;7.20;1.00;;;;;;5059644;28;20234;-66
2023/04/20 04:06:13;;;;;;;6.90;4.40;;;7.00;1.00;;;;;;5066764;28;20225;-67
2023/04/20 04:08:40;;;;;;;4.73;4.10;;;7.10;1.00;;;;;;5061201;28;20578;-66
2023/04/20 04:11:09;;;;;;;4.53;3.90;;;7.00;1.00;;;;;;5031525;28;20207;-66
2023/04/20 04:13:36;;;;;;;6.00;4.53;;;7.00;1.00;;;;;;5057530;28;20226;-66
2023/04/20 04:16:06;;;;;;;5.73;4.17;;;7.10;1.00;;;;;;5048894;28;20199;-66
2023/04/20 04:18:34;;;;;;;4.73;3.87;;;7.00;1.00;;;;;;5048698;28;20199;-66
2023/04/20 04:21:09;;;;;;;6.03;4.27;;;7.00;1.00;;;;;;5055052;28;20245;-67
2023/04/20 04:23:37;;;;;;;5.80;4.33;;;7.00;1.00;;;;;;5066163;28;20697;-69
2023/04/20 04:26:11;;;;;;;5.47;4.73;;;7.00;1.00;;;;;;5048679;28;20309;-69
2023/04/20 04:28:44;;;;;;;6.70;4.20;;;7.00;1.00;;;;;;5038625;28;20207;-67
2023/04/20 04:31:22;;;;;;;4.57;3.87;;;7.00;1.00;;;;;;5054405;28;20194;-66
2023/04/20 04:33:50;;;;;;;7.90;5.37;;;6.90;1.00;;;;;;5054490;28;20213;-66
2023/04/20 04:36:28;;;;;;;5.67;4.27;;;6.80;1.00;;;;;;5044627;28;20194;-66
2023/04/20 04:38:57;;;;;;;6.50;4.83;;;6.90;1.00;;;;;;5071234;28;20195;-69
2023/04/20 04:41:24;;;;;;;5.37;4.50;;;6.90;1.00;;;;;;5049797;28;20666;-67
2023/04/20 04:43:54;;;;;;;7.50;4.30;;;6.90;1.00;;;;;;5050559;28;20195;-67
2023/04/20 04:46:28;;;;;;;7.50;4.90;;;6.90;1.00;;;;;;5031104;28;20726;-67
2023/04/20 04:48:59;;;;;;;6.37;4.60;;;6.90;1.00;;;;;;5035224;28;20327;-68
2023/04/20 04:51:27;;;;;;;7.87;5.30;;;6.90;1.00;;;;;;5050708;28;20589;-67
2023/04/20 04:53:54;;;;;;;7.93;4.80;;;6.90;1.00;;;;;;5058265;28;20486;-67
2023/04/20 04:56:22;;;;;;;5.93;5.00;;;6.90;1.00;;;;;;5067155;28;20229;-67
2023/04/20 04:58:49;;;;;;;5.73;5.07;;;6.90;1.00;;;;;;5068988;28;20195;-67
2023/04/20 05:01:16;;;;;;;6.77;5.27;;;6.80;1.00;;;;;;5073965;28;21190;-67
2023/04/20 05:03:43;;;;;;;6.57;5.50;;;6.80;1.00;;;;;;5040214;28;20262;-67
2023/04/20 05:06:10;;;;;;;7.50;5.40;;;6.80;1.00;;;;;;5046473;28;20715;-67
2023/04/20 05:08:37;;;;;;;8.47;5.70;;;6.80;1.00;;;;;;5053230;28;20183;-67
2023/04/20 05:11:04;;;;;;;8.70;5.83;;;6.70;1.00;;;;;;5062364;28;20218;-67
2023/04/20 05:13:31;;;;;;;7.53;5.23;;;6.70;1.00;;;;;;5052328;28;20201;-67
2023/04/20 05:15:58;;;;;;;7.17;5.67;;;6.70;1.00;;;;;;5065165;28;20585;-67
2023/04/20 05:18:25;;;;;;;6.67;5.97;;;6.70;1.00;;;;;;5064092;28;20190;-67
2023/04/20 05:20:52;;;;;;;6.73;5.30;;;6.70;1.00;;;;;;5056187;28;20259;-67
2023/04/20 05:23:20;;;;;;;8.63;5.97;;;6.80;1.00;;;;;;5057916;28;20282;-67
2023/04/20 05:25:47;;;;;;;12.13;7.13;;;6.80;1.00;;;;;;5037844;28;20707;-67
2023/04/20 05:28:14;;;;;;;14.07;7.70;;;6.70;1.00;;;;;;5048133;28;20679;-67
2023/04/20 05:30:41;;;;;;;8.03;7.07;;;6.60;1.00;;;;;;5060925;28;20654;-67
2023/04/20 05:33:08;;;;;;;9.03;6.73;;;6.60;1.00;;;;;;5066352;28;20178;-67
2023/04/20 05:35:35;;;;;;;10.57;6.80;;;6.60;1.00;;;;;;5065437;28;20260;-67
2023/04/20 05:38:05;;;;;;;7.97;6.80;;;6.60;1.00;;;;;;5062465;28;20682;-68
2023/04/20 05:40:36;;;;;;;8.50;6.80;;;6.60;1.00;;;;;;5069673;28;20677;-68
2023/04/20 05:43:03;;;;;;;7.70;6.40;;;6.60;1.00;;;;;;5058422;28;20565;-67
2023/04/20 05:45:31;;;;;;;7.80;6.70;;;6.50;1.00;;;;;;5067299;28;20222;-67
2023/04/20 05:47:58;;;;;;;7.10;5.40;;;6.60;1.00;;;;;;5049744;28;20191;-67
2023/04/20 05:50:26;;;;;;;7.70;6.47;;;6.50;1.00;;;;;;5026918;28;20191;-68
2023/04/20 05:52:53;;;;;;;7.43;6.67;;;6.50;1.00;;;;;;5058137;28;20666;-67
2023/04/20 05:55:20;;;;;;;5.77;5.17;;;6.50;1.00;;;;;;5043876;28;20183;-67
2023/04/20 05:57:50;;;;;;;8.80;6.77;;;6.50;1.00;;;;;;5052766;28;20199;-67
2023/04/20 06:00:18;;;;;;;9.57;7.10;;;6.40;1.00;;;;;;5059067;28;20206;-67
2023/04/20 06:02:45;;;;;;;6.90;5.87;;;6.50;1.00;;;;;;5059358;28;20245;-67
2023/04/20 06:05:13;;;;;;;9.80;6.67;;;6.50;1.00;;;;;;5064197;28;20199;-68
2023/04/20 06:07:39;;;;;;;10.13;6.43;;;6.50;1.00;;;;;;5046910;28;20215;-66
2023/04/20 06:10:07;;;;;;;10.97;7.00;;;6.60;1.00;;;;;;5045815;28;20194;-67
2023/04/20 06:12:34;;;;;;;6.40;5.80;;;6.70;1.00;;;;;;5050960;28;20190;-67
2023/04/20 06:15:01;;;;;;;9.47;6.50;;;6.90;1.00;;;;;;5059334;28;20191;-67
2023/04/20 06:17:28;;;;;;;8.67;6.40;;;6.90;1.00;;;;;;5038181;28;20226;-67
2023/04/20 06:19:55;;;;;;;10.50;5.80;;;6.90;1.00;;;;;;5061085;28;20198;-67
2023/04/20 06:22:22;;;;;;;9.47;6.47;;;6.80;1.00;;;;;;5062625;28;20218;-67
2023/04/20 06:24:50;;;;;;;7.13;6.00;;;6.90;1.00;;;;;;5066798;28;20191;-67
2023/04/20 06:27:17;;;;;;;9.10;6.53;;;7.00;1.00;;;;;;5065190;28;20203;-67
2023/04/20 06:29:44;;;;;;;8.60;6.43;;;7.20;1.00;;;;;;5058580;28;20195;-68
2023/04/20 06:32:11;;;;;;;7.47;6.37;;;7.20;1.00;;;;;;5061484;28;21234;-69
2023/04/20 06:34:38;;;;;;;7.93;6.00;;;7.30;1.00;;;;;;5057948;28;20195;-67
2023/04/20 06:37:06;;;;;;;9.90;6.83;;;7.30;1.00;;;;;;5067425;28;20252;-67
2023/04/20 06:39:34;;;;;;;11.03;7.53;;;7.30;1.00;;;;;;5046805;28;20198;-68
2023/04/20 06:42:01;;;;;;;12.37;7.80;;;7.40;1.00;;;;;;5057266;28;20724;-69
2023/04/20 06:44:28;;;;;;;8.23;6.67;;;7.40;1.00;;;;;;5064209;28;20657;-67
2023/04/20 06:46:55;;;;;;;11.50;6.70;;;7.40;1.00;;;;;;5062581;28;20212;-67
2023/04/20 06:49:22;;;;;;;8.90;7.07;;;7.30;1.00;;;;;;5049275;28;20196;-66
2023/04/20 06:51:49;;;;;;;11.30;7.93;;;7.30;1.00;;;;;;5062327;28;20189;-68
2023/04/20 06:54:16;;;;;;;14.83;7.37;;;7.40;1.00;;;;;;5067180;28;20313;-67
2023/04/20 06:56:43;;;;;;;12.70;8.37;;;7.30;1.00;;;;;;5047333;28;20191;-68
2023/04/20 06:59:10;;;;;;;9.47;6.47;;;7.30;1.00;;;;;;5051476;28;20283;-67
2023/04/20 07:01:37;;;;;;;9.57;6.97;;;7.30;1.00;;;;;;5054482;28;20187;-67
2023/04/20 07:04:04;;;;;;;6.83;6.13;;;7.20;1.00;;;;;;5062540;28;20305;-67
2023/04/20 07:06:32;;;;;;;7.27;5.87;;;7.40;1.00;;;;;;5066196;28;20223;-67
2023/04/20 07:08:58;;;;;;;8.50;6.73;;;7.40;1.00;;;;;;5034937;28;20195;-68
2023/04/20 07:11:25;;;;;;;8.40;6.93;;;7.50;1.00;;;;;;5063339;28;20206;-67
2023/04/20 07:13:52;;;;;;;8.03;6.47;;;7.20;1.00;;;;;;5066316;28;20302;-68
2023/04/20 07:16:19;;;;;;;10.67;6.83;;;7.30;1.00;;;;;;5049100;28;20225;-67
2023/04/20 07:18:46;;;;;;;10.87;7.73;;;7.40;1.00;;;;;;5063655;28;20195;-68
2023/04/20 07:21:14;;;;;;;8.03;6.60;;;7.40;1.00;;;;;;5044494;28;20558;-68
2023/04/20 07:23:41;;;;;;;11.47;7.90;;;7.40;1.00;;;;;;5048398;28;20195;-68
2023/04/20 07:26:11;;;;;;;11.23;7.03;;;7.40;1.00;;;;;;5065036;28;20215;-67
2023/04/20 07:28:38;;;;;;;10.17;7.47;;;7.40;1.00;;;;;;5051641;28;20193;-67
2023/04/20 07:31:05;;;;;;;15.87;8.93;;;7.30;1.00;;;;;;5058921;28;20211;-68
2023/04/20 07:33:34;;;;;;;10.47;7.60;;;7.40;1.00;;;;;;5061402;28;20289;-68
2023/04/20 07:36:01;;;;;;;10.90;8.83;;;7.40;1.00;;;;;;5067768;28;20183;-68
2023/04/20 07:38:28;;;;;;;11.43;8.00;;;7.40;1.00;;;;;;5065961;28;20199;-68
2023/04/20 07:40:55;;;;;;;12.07;8.10;;;7.40;1.00;;;;;;5062322;28;20761;-68
2023/04/20 07:43:22;;;;;;;12.30;8.07;;;7.30;1.00;;;;;;5041081;28;21062;-68
2023/04/20 07:45:49;;;;;;;10.43;7.97;;;7.30;1.00;;;;;;5048840;28;20191;-68
2023/04/20 07:48:16;;;;;;;10.07;7.97;;;7.30;1.00;;;;;;5057940;28;20241;-68
2023/04/20 07:50:43;;;;;;;13.43;8.07;;;7.40;1.00;;;;;;5029558;28;20233;-67
2023/04/20 07:53:10;;;;;;;12.37;8.47;;;7.40;1.00;;;;;;5064724;28;20880;-68
2023/04/20 07:55:37;;;;;;;13.80;9.23;;;7.30;1.00;;;;;;5060526;28;20763;-68
2023/04/20 07:58:04;;;;;;;11.23;9.17;;;7.10;1.00;;;;;;5062490;28;20277;-68
2023/04/20 08:00:30;;;;;;;12.77;8.93;;;7.10;1.00;;;;;;5049567;28;20678;-68
2023/04/20 08:02:58;;;;;;;12.87;9.80;;;7.10;1.00;;;;;;5060051;28;20231;-68
2023/04/20 08:05:25;;;;;;;16.50;10.53;;;7.00;1.00;;;;;;5047031;28;20678;-68
2023/04/20 08:07:53;;;;;;;10.97;9.27;;;6.90;1.00;;;;;;5049254;28;20784;-68
2023/04/20 08:10:20;;;;;;;11.63;9.13;;;6.90;1.00;;;;;;5043887;28;20229;-68
2023/04/20 08:12:47;;;;;;;15.07;10.73;;;7.00;1.00;;;;;;5027638;28;20739;-68
2023/04/20 08:15:18;;;;;;;12.70;9.80;;;7.00;1.00;;;;;;5048899;28;20214;-68
2023/04/20 08:17:45;;;;;;;13.13;10.07;;;7.00;1.00;;;;;;5043512;28;20198;-67
2023/04/20 08:20:12;;;;;;;11.50;10.30;;;7.10;1.00;;;;;;5045406;28;20192;-67
2023/04/20 08:22:39;;;;;;;15.37;10.73;;;7.10;1.00;;;;;;5044997;28;20191;-67
2023/04/20 08:25:07;;;;;;;10.67;6.80;;;6.90;1.00;;;;;;5049350;28;20754;-65
2023/04/20 08:27:33;;;;;;;10.33;6.90;;;6.00;1.00;;;;;;5055860;28;20225;-66
2023/04/20 08:30:03;;;;;;;10.63;7.10;;;5.30;14.30;;;;;;5042087;28;20253;-65
2023/04/20 08:32:30;;;;;;;8.40;7.27;;;5.10;99.90;;;;;;5050291;28;20247;-64
2023/04/20 08:34:57;;;;;;;8.53;7.63;;;5.40;1.00;;;;;;5046951;28;20184;-65
2023/04/20 08:37:24;;;;;;;10.73;8.40;;;5.60;99.90;;;;;;5045734;28;20290;-66
2023/04/20 08:39:51;;;;;;;9.53;8.20;;;5.50;92.50;;;;;;5039579;28;20196;-65
2023/04/20 08:42:19;;;;;;;10.40;8.50;;;5.60;99.90;;;;;;5049867;28;20187;-65
2023/04/20 08:44:46;;;;;;;10.27;8.67;;;5.70;99.90;;;;;;5038823;28;20222;-65
2023/04/20 08:47:14;;;;;;;11.20;9.70;;;5.50;99.90;;;;;;5039660;28;20219;-65
2023/04/20 08:49:43;;;;;;;12.27;9.70;;;5.50;99.90;;;;;;5046049;28;20243;-66
2023/04/20 08:52:11;;;;;;;12.70;9.83;;;5.60;99.90;;;;;;5033489;28;20188;-65
2023/04/20 08:54:38;;;;;;;11.90;9.47;;;5.70;99.90;;;;;;5050502;28;20196;-67
2023/04/20 08:57:18;;;;;;;13.17;10.33;;;6.00;99.90;;;;;;5033644;28;20206;-66
2023/04/20 08:59:46;;;;;;;15.03;12.40;;;6.70;99.90;;;;;;5037097;28;20310;-66
2023/04/20 09:02:13;;;;;;;12.67;10.87;;;8.40;99.90;;;;;;5047488;28;20302;-67
2023/04/20 09:04:41;;;;;;;13.93;10.63;;;8.00;99.90;;;;;;5026998;28;20659;-67
2023/04/20 09:07:19;;;;;;;12.43;11.13;;;7.70;99.90;;;;;;5040449;28;20665;-67
2023/04/20 09:09:54;;;;;;;12.10;10.63;;;7.80;99.90;;;;;;5026773;28;20621;-66
2023/04/20 09:12:21;;;;;;;13.70;10.67;;;7.70;99.90;;;;;;5043514;28;20218;-68
2023/04/20 09:14:48;;;;;;;12.70;11.17;;;7.60;99.90;;;;;;5048255;28;20785;-66
2023/04/20 09:17:18;;;;;;;16.43;11.77;;;7.70;99.90;;;;;;5011232;28;20761;-66
2023/04/20 09:19:51;;;;;;;11.53;10.20;;;7.80;7.90;;;;;;5047128;28;20204;-65
2023/04/20 09:22:32;;;;;;;11.93;10.23;;;8.20;1.00;;;;;;5046559;28;20222;-66
2023/04/20 09:25:00;;;;;;;10.47;9.37;;;8.70;1.00;;;;;;5048264;28;20199;-67
2023/04/20 09:27:27;;;;;;;10.47;9.00;;;10.10;99.90;;;;;;5006940;28;20230;-65
2023/04/20 09:29:58;;;;;;;10.20;9.10;;;9.20;1.00;;;;;;5027579;28;20254;-67
2023/04/20 09:32:27;;;;;;;11.33;9.10;;;8.60;1.00;;;;;;5020594;28;20274;-66
2023/04/20 09:34:55;;;;;;;11.23;9.70;;;8.30;1.00;;;;;;5050566;28;20241;-68
2023/04/20 09:37:23;;;;;;;11.50;8.63;;;8.80;1.00;;;;;;5037977;28;20211;-66
2023/04/20 09:39:50;;;;;;;8.70;7.80;;;9.00;1.00;;;;;;5023831;28;20195;-66
2023/04/20 09:42:17;;;;;;;8.57;6.57;;;9.80;1.00;;;;;;5042266;28;20587;-65
2023/04/20 09:44:44;;;;;;;9.53;7.07;;;9.50;1.00;;;;;;5022439;28;20204;-66
2023/04/20 09:47:15;;;;;;;7.87;7.07;;;9.50;1.00;;;;;;5047698;28;20207;-66
2023/04/20 09:49:46;;;;;;;10.23;7.23;;;10.10;1.00;;;;;;5031528;28;20202;-66
2023/04/20 09:52:19;;;;;;;9.50;8.10;;;9.30;1.00;;;;;;5046095;28;20192;-68
2023/04/20 09:54:47;;;;;;;7.97;7.17;;;8.80;1.00;;;;;;5027845;28;20191;-66
2023/04/20 09:57:15;;;;;;;10.27;8.00;;;8.60;1.00;;;;;;5029394;28;20223;-66
2023/04/20 09:59:43;;;;;;;8.77;7.87;;;8.50;1.00;;;;;;5051337;28;20250;-66
2023/04/20 10:02:11;;;;;;;10.93;8.30;;;8.40;1.00;;;;;;5042594;28;20690;-67
2023/04/20 10:04:54;;;;;;;9.27;8.23;;;8.30;1.00;;;;;;5041903;28;20197;-67
2023/04/20 10:07:29;;;;;;;8.47;7.47;;;8.40;1.00;;;;;;5038049;28;20562;-70
2023/04/20 10:10:22;;;;;;;8.20;7.40;;;8.40;1.00;;;;;;5027193;28;20187;-76
2023/04/20 10:12:59;;;;;;;9.17;7.63;;;8.40;1.00;;;;;;5039542;28;20195;-67
2023/04/20 10:15:38;;;;;;;8.77;7.17;;;8.50;1.00;;;;;;5045350;28;20577;-67
2023/04/20 10:18:16;;;;;;;9.53;7.37;;;8.60;1.00;;;;;;5045642;28;20575;-67
2023/04/20 10:20:44;;;;;;;8.47;7.00;;;9.60;1.00;;;;;;5048203;28;20262;-68
2023/04/20 10:23:14;;;;;;;6.83;6.13;;;10.90;1.00;;;;;;5027003;28;20204;-67
2023/04/20 10:25:44;;;;;;;7.27;5.63;;;10.80;1.00;;;;;;5007872;28;20195;-67
2023/04/20 10:28:13;;;;;;;6.20;5.60;;;11.70;1.00;;;;;;5027125;28;20790;-67
2023/04/20 10:30:51;;;;;;;5.73;5.10;;;14.10;1.00;;;;;;5010752;28;20191;-67
2023/04/20 10:33:18;;;;;;;6.17;5.40;;;14.70;1.00;;;;;;5044105;28;20297;-70
2023/04/20 10:35:49;;;;;;;7.27;5.73;;;12.90;1.00;;;;;;5048290;28;20236;-69
2023/04/20 10:38:35;;;;;;;6.67;6.03;;;12.70;1.00;;;;;;5048434;28;20214;-67
2023/04/20 10:41:07;;;;;;;6.80;6.10;;;11.50;1.00;;;;;;5050052;28;20844;-68
2023/04/20 10:43:34;;;;;;;7.03;5.93;;;11.50;1.00;;;;;;5030961;28;20203;-68
2023/04/20 10:46:01;;;;;;;6.73;5.83;;;11.40;1.00;;;;;;5041222;28;20208;-68
2023/04/20 10:48:28;;;;;;;6.03;5.30;;;12.80;1.00;;;;;;5026932;28;20592;-68
2023/04/20 10:50:55;;;;;;;6.73;5.97;;;12.20;1.00;;;;;;5045102;28;20665;-68
2023/04/20 10:53:23;;;;;;;8.37;6.47;;;11.10;1.00;;;;;;5041173;28;20288;-68
2023/04/20 10:55:59;;;;;;;7.47;6.63;;;10.70;1.00;;;;;;5041280;28;20198;-67
2023/04/20 10:58:27;;;;;;;8.07;6.70;;;10.80;1.00;;;;;;5045510;28;20207;-69
2023/04/20 11:01:01;;;;;;;7.17;6.47;;;10.90;1.00;;;;;;5044494;28;20188;-69
2023/04/20 11:03:30;;;;;;;7.67;6.00;;;10.70;1.00;;;;;;5027130;28;20238;-67
2023/04/20 11:06:00;;;;;;;7.23;6.30;;;11.00;1.00;;;;;;5021639;28;20286;-68
2023/04/20 11:08:45;;;;;;;8.90;6.53;;;11.60;1.00;;;;;;5043468;28;20222;-68
2023/04/20 11:11:18;;;;;;;7.77;6.90;;;11.10;1.00;;;;;;5044302;28;20671;-68
2023/04/20 11:13:46;;;;;;;7.93;6.37;;;11.10;1.00;;;;;;5044118;28;20675;-68
2023/04/20 11:16:15;;;;;;;10.07;7.63;;;11.00;1.00;;;;;;5054452;28;20317;-67
2023/04/20 11:18:55;;;;;;;7.83;6.93;;;10.60;1.00;;;;;;5051573;28;20219;-67
2023/04/20 11:21:22;;;;;;;7.57;6.77;;;11.40;1.00;;;;;;5044144;28;20269;-68
2023/04/20 11:23:49;;;;;;;8.40;6.70;;;12.10;1.00;;;;;;5042213;28;20553;-68
2023/04/20 11:26:16;;;;;;;8.53;7.20;;;12.60;1.00;;;;;;5041418;28;20270;-67
2023/04/20 11:28:51;;;;;;;7.73;6.70;;;13.40;1.00;;;;;;5045833;28;20854;-68
2023/04/20 11:31:21;;;;;;;8.30;7.30;;;13.30;1.00;;;;;;5042379;28;20194;-67
2023/04/20 11:33:49;;;;;;;8.63;7.30;;;12.60;1.00;;;;;;5025489;28;20273;-68
2023/04/20 11:36:25;;;;;;;8.63;7.73;;;11.80;1.00;;;;;;5039741;28;20199;-68
2023/04/20 11:38:52;;;;;;;10.33;7.80;;;11.50;1.00;;;;;;5045553;28;21421;-68
2023/04/20 11:41:20;;;;;;;11.03;7.43;;;11.60;1.00;;;;;;5047516;28;20211;-68
2023/04/20 11:43:48;;;;;;;8.10;7.23;;;11.40;1.00;;;;;;5042712;28;20203;-67
2023/04/20 11:46:17;;;;;;;10.57;7.23;;;12.00;1.00;;;;;;5052842;28;20194;-69
2023/04/20 11:48:48;;;;;;;8.30;7.33;;;13.00;1.00;;;;;;5045430;28;20856;-67
2023/04/20 11:51:15;;;;;;;11.83;8.43;;;12.50;1.00;;;;;;5048686;28;20195;-67
2023/04/20 11:53:42;;;;;;;8.67;7.77;;;12.80;1.00;;;;;;5023648;28;20314;-68
2023/04/20 11:56:10;;;;;;;8.07;6.87;;;12.40;1.00;;;;;;5046616;28;20209;-67
2023/04/20 11:58:37;;;;;;;9.10;7.97;;;12.20;1.00;;;;;;5046648;28;20234;-68
2023/04/20 12:01:04;;;;;;;8.70;7.78;;;13.10;1.00;;;;;;5033369;28;20207;-69
2023/04/20 12:03:31;;;;;;;8.25;7.40;;;14.00;1.00;;;;;;5041149;28;20295;-68
2023/04/20 12:05:59;;;;;;;8.10;7.30;;;14.00;1.00;;;;;;5034006;28;20191;-68
2023/04/20 12:08:26;;;;;;;9.77;7.53;;;13.30;1.00;;;;;;5006611;28;20694;-68
2023/04/20 12:10:53;;;;;;;8.63;7.70;;;13.70;1.00;;;;;;5040728;28;20303;-68
2023/04/20 12:13:24;;;;;;;10.97;7.57;;;14.10;1.00;;;;;;5044348;28;20194;-69
2023/04/20 12:15:51;;;;;;;10.20;8.80;;;12.90;1.00;;;;;;5045771;28;20659;-67
2023/04/20 12:18:18;;;;;;;12.00;9.40;;;11.90;1.00;;;;;;5028238;28;20205;-68
2023/04/20 12:20:46;;;;;;;9.27;8.00;;;11.50;1.00;;;;;;5039175;28;20230;-68
2023/04/20 12:23:13;;;;;;;10.57;8.77;;;11.40;1.00;;;;;;5029003;28;20217;-68
2023/04/20 12:25:39;;;;;;;10.97;8.77;;;11.40;1.00;;;;;;5026526;28;20254;-69
2023/04/20 12:28:07;;;;;;;9.33;8.20;;;11.20;1.00;;;;;;5048193;28;20778;-67
2023/04/20 12:30:34;;;;;;;9.07;7.50;;;11.30;1.00;;;;;;5024701;28;20230;-71
2023/04/20 12:33:02;;;;;;;8.40;7.63;;;11.90;1.00;;;;;;5045046;28;20271;-67
2023/04/20 12:35:29;;;;;;;8.90;7.40;;;12.20;1.00;;;;;;5046152;28;20212;-67
2023/04/20 12:37:56;;;;;;;7.83;7.07;;;12.50;1.00;;;;;;5023578;28;20201;-68
2023/04/20 12:40:23;;;;;;;9.63;8.13;;;12.60;1.00;;;;;;5028229;28;20290;-67
2023/04/20 12:42:50;;;;;;;8.10;7.23;;;12.60;1.00;;;;;;5045936;28;21462;-68
2023/04/20 12:45:17;;;;;;;8.37;7.43;;;12.70;1.00;;;;;;5045670;28;20211;-68
2023/04/20 12:47:44;;;;;;;10.10;7.40;;;12.30;1.00;;;;;;5048953;28;20276;-67
2023/04/20 12:50:11;;;;;;;9.43;7.70;;;12.30;1.00;;;;;;5043247;28;20192;-68
2023/04/20 12:52:38;;;;;;;8.30;7.47;;;12.40;1.00;;;;;;5043134;28;20198;-68
2023/04/20 12:55:06;;;;;;;9.53;8.53;;;12.30;1.00;;;;;;5027631;28;20196;-68
2023/04/20 12:57:34;;;;;;;8.67;7.87;;;12.20;1.00;;;;;;5024129;28;20212;-68
2023/04/20 13:00:04;;;;;;;8.90;8.00;;;12.20;1.00;;;;;;5045476;28;20207;-68
2023/04/20 13:02:32;;;;;;;8.43;7.57;;;12.20;1.00;;;;;;5025494;28;20246;-68
2023/04/20 13:04:59;;;;;;;8.40;7.60;;;12.60;1.00;;;;;;5061060;28;20206;-68
2023/04/20 13:07:28;;;;;;;9.30;8.13;;;12.60;1.00;;;;;;5045464;28;20211;-68